METAR Data
IDs: Format: Raw Decoded Include TAF

Data at: 1415 UTC 21 Feb 2019

KECP 211359Z 13008KT M1/4SM R16/1400FT FG VV002 21/20 A3009 RMK AO2 T02060200